Time;durP1;ratioP1;P1;durP2;ratioP2;P2;SDS_P1;SDS_P2;PMS_P1;PMS_P2;Temp;Humidity;BMP_temperature;BMP_pressure;BME280_temperature;BME280_humidity;BME280_pressure;Samples;Min_cycle;Max_cycle;Signal;HPM_P1;HPM_P2
2022/02/07 00:01:50;;;;;;;0.95;0.80;;;;;;;3.90;78.25;95484.16;5076005;28;20113;-77
2022/02/07 00:04:23;;;;;;;0.10;0.10;;;;;;;3.87;78.59;95487.03;5076344;28;20577;-78
2022/02/07 00:06:50;;;;;;;;;;;;;;;3.87;79.32;95493.03;5076970;28;20052;-78
2022/02/07 00:09:18;;;;;;;0.22;0.10;;;;;;;3.88;78.70;95542.84;5076431;28;19927;-76
2022/02/07 00:11:45;;;;;;;0.30;0.30;;;;;;;3.89;78.84;95558.16;5075874;28;20056;-77
2022/02/07 00:14:13;;;;;;;0.10;0.10;;;;;;;3.87;78.07;95564.44;5075782;28;20052;-77
2022/02/07 00:16:43;;;;;;;0.00;0.00;;;;;;;3.84;77.26;95569.94;5075621;28;20056;-80
2022/02/07 00:19:17;;;;;;;0.57;0.15;;;;;;;3.80;77.82;95573.81;5076633;28;20047;-78
2022/02/07 00:21:46;;;;;;;0.55;0.20;;;;;;;3.79;78.43;95592.84;5075880;28;20472;-77
2022/02/07 00:24:13;;;;;;;0.00;0.00;;;;;;;3.76;77.95;95619.78;5076003;28;20063;-77
2022/02/07 00:26:41;;;;;;;0.65;0.10;;;;;;;3.70;77.11;95626.38;5074885;28;20056;-78
2022/02/07 00:29:09;;;;;;;0.10;0.00;;;;;;;3.64;77.83;95637.34;5075814;28;20070;-78
2022/02/07 00:31:37;;;;;;;0.10;0.00;;;;;;;3.63;78.38;95633.19;5075600;28;20512;-78
2022/02/07 00:34:05;;;;;;;0.00;0.00;;;;;;;3.60;77.31;95632.69;5075931;28;20052;-78
2022/02/07 00:36:33;;;;;;;0.03;0.00;;;;;;;3.56;77.33;95629.59;5075225;28;20051;-78
2022/02/07 00:39:07;;;;;;;0.35;0.10;;;;;;;3.52;77.72;95623.19;5075530;28;20052;-78
2022/02/07 00:41:40;;;;;;;0.00;0.00;;;;;;;3.53;78.16;95611.91;5076059;28;20056;-77
2022/02/07 00:44:13;;;;;;;0.00;0.00;;;;;;;3.55;78.12;95622.84;5075303;28;20052;-78
2022/02/07 00:46:48;;;;;;;0.00;0.00;;;;;;;3.57;78.22;95638.97;5075324;28;20055;-78
2022/02/07 00:49:18;;;;;;;0.00;0.00;;;;;;;3.57;78.11;95645.91;5075052;28;20122;-77
2022/02/07 00:51:48;;;;;;;0.00;0.00;;;;;;;3.56;78.12;95683.75;5075381;28;20048;-77
2022/02/07 00:54:16;;;;;;;0.43;0.10;;;;;;;3.55;77.93;95686.53;5075577;28;20052;-78
2022/02/07 00:56:43;;;;;;;0.00;0.00;;;;;;;3.53;78.20;95676.34;5074474;28;20044;-78
2022/02/07 00:59:11;;;;;;;0.00;0.00;;;;;;;3.50;77.58;95680.06;5074645;28;20048;-78
2022/02/07 01:01:38;;;;;;;0.00;0.00;;;;;;;3.46;78.17;95659.94;5074983;28;20060;-77
2022/02/07 01:04:06;;;;;;;0.15;0.15;;;;;;;3.42;78.35;95653.47;5075493;28;20119;-77
2022/02/07 01:06:35;;;;;;;0.00;0.00;;;;;;;3.40;78.89;95669.09;5075285;28;20060;-78
2022/02/07 01:09:14;;;;;;;0.57;0.20;;;;;;;3.42;79.28;95659.44;5074912;28;20498;-80
2022/02/07 01:11:57;;;;;;;0.17;0.00;;;;;;;3.41;79.39;95657.84;5075711;28;20335;-80
2022/02/07 01:14:41;;;;;;;0.38;0.20;;;;;;;3.41;78.79;95657.84;5075300;28;20048;-79
2022/02/07 01:20:44;;;;;;;0.20;0.10;;;;;;;3.41;78.96;95672.47;5075248;28;20059;-77
2022/02/07 01:23:30;;;;;;;0.75;0.13;;;;;;;3.39;79.24;95707.91;5076132;28;20045;-77
2022/02/07 01:48:38;;;;;;;0.10;0.10;;;;;;;3.27;79.31;95782.16;5075818;28;20048;-77
2022/02/07 01:51:13;;;;;;;0.43;0.08;;;;;;;3.26;79.56;95798.59;5076318;28;20060;-79
2022/02/07 01:54:06;;;;;;;0.20;0.20;;;;;;;3.27;79.25;95798.44;5076381;28;20049;-78
2022/02/07 01:56:30;;;;;;;0.00;0.00;;;;;;;3.26;78.61;95798.59;5077992;28;20064;-78
2022/02/07 01:58:58;;;;;;;0.22;0.22;;;;;;;3.24;78.64;95801.34;5080024;28;20426;-77
2022/02/07 02:01:25;;;;;;;0.10;0.10;;;;;;;3.21;77.87;95806.78;5079562;28;20529;-78
2022/02/07 02:03:53;;;;;;;0.40;0.38;;;;;;;3.18;77.90;95820.00;5080254;28;20045;-79
2022/02/07 02:06:22;;;;;;;1.27;0.40;;;;;;;3.17;78.50;95814.97;5079388;28;20048;-78
2022/02/07 02:08:51;;;;;;;0.95;0.30;;;;;;;3.19;79.17;95828.53;5079565;28;20060;-79
2022/02/07 02:11:18;;;;;;;0.35;0.30;;;;;;;3.21;79.51;95837.72;5079503;28;20052;-78
2022/02/07 02:14:06;;;;;;;0.38;0.20;;;;;;;3.24;78.65;95831.47;5079774;28;20113;-78
2022/02/07 02:16:40;;;;;;;0.30;0.30;;;;;;;3.23;79.42;95838.34;5079261;28;20060;-78
2022/02/07 02:19:41;;;;;;;0.20;0.20;;;;;;;3.24;79.01;95842.56;5079766;28;20174;-80
2022/02/07 02:33:55;;;;;;;1.30;0.50;;;;;;;3.20;79.14;95885.06;5076951;28;20095;-77
2022/02/07 02:36:32;;;;;;;2.05;0.47;;;;;;;3.21;79.54;95907.28;5076892;28;20048;-77
2022/02/07 02:47:21;;;;;;;2.05;0.47;;;;;;;3.17;78.56;95972.19;5076293;28;20097;-77
2022/02/07 02:50:04;;;;;;;2.33;0.70;;;;;;;3.15;78.83;95982.66;5098440;22;20056;-83
2022/02/07 02:52:31;;;;;;;0.98;0.40;;;;;;;3.16;79.46;95984.25;5096996;28;20048;-83
2022/02/07 02:55:02;;;;;;;1.77;0.50;;;;;;;3.16;79.46;95984.25;5096177;28;20052;-82
2022/02/07 02:57:30;;;;;;;0.80;0.60;;;;;;;3.16;79.88;95989.41;5095799;28;20044;-85
2022/02/07 02:59:58;;;;;;;2.55;0.30;;;;;;;3.15;79.89;95995.56;5095462;28;20104;-84
2022/02/07 03:02:26;;;;;;;0.50;0.30;;;;;;;3.15;80.50;96003.28;5082802;28;20048;-83
2022/02/07 03:04:54;;;;;;;0.73;0.38;;;;;;;3.18;80.91;96018.44;5078175;28;20494;-83
2022/02/07 03:07:25;;;;;;;0.60;0.40;;;;;;;3.21;80.20;96012.97;5076641;28;20139;-83
2022/02/07 03:10:06;;;;;;;1.42;0.60;;;;;;;3.23;80.11;96026.50;5075852;28;20058;-82
2022/02/07 03:12:56;;;;;;;1.95;0.47;;;;;;;3.25;80.60;96036.69;5075770;28;20048;-83
2022/02/07 03:18:12;;;;;;;1.67;0.40;;;;;;;3.29;80.56;96056.06;5079631;28;20056;-83
2022/02/07 03:20:42;;;;;;;1.58;0.40;;;;;;;3.29;80.67;96062.00;5096895;28;20127;-83
2022/02/07 03:23:10;;;;;;;4.78;0.68;;;;;;;3.30;80.54;96067.97;5096055;28;20112;-84
2022/02/07 03:25:39;;;;;;;1.83;0.47;;;;;;;3.31;79.64;96079.91;5096804;28;20060;-84
2022/02/07 03:28:08;;;;;;;3.30;1.05;;;;;;;3.28;80.08;96085.38;5096620;28;20039;-83
2022/02/07 03:30:44;;;;;;;1.27;0.50;;;;;;;3.28;80.18;96091.34;5096634;28;20044;-82
2022/02/07 03:33:12;;;;;;;1.90;0.70;;;;;;;3.29;79.81;96097.28;5096209;28;20057;-84
2022/02/07 03:35:46;;;;;;;2.28;0.52;;;;;;;3.29;80.10;96105.03;5096013;28;20044;-83
2022/02/07 03:38:14;;;;;;;1.40;0.40;;;;;;;3.28;79.48;96106.00;5096053;28;20063;-84
2022/02/07 03:40:48;;;;;;;1.63;1.08;;;;;;;3.29;79.71;96118.72;5092440;28;20052;-83
2022/02/07 03:43:17;;;;;;;2.95;0.65;;;;;;;3.31;79.92;96128.88;5082478;28;20052;-83
2022/02/07 03:45:45;;;;;;;3.97;0.80;;;;;;;3.32;79.61;96132.28;5080620;28;20123;-85
2022/02/07 03:48:13;;;;;;;3.22;1.02;;;;;;;3.28;78.54;96130.00;5079630;28;20059;-83
2022/02/07 03:50:41;;;;;;;3.67;0.75;;;;;;;3.27;78.91;96136.09;5075615;28;20067;-83
2022/02/07 03:53:09;;;;;;;3.67;0.75;;;;;;;3.29;79.37;96139.34;5075621;28;20053;-82
2022/02/07 03:55:39;;;;;;;2.50;0.30;;;;;;;3.30;79.08;96151.28;5075697;28;20490;-83
2022/02/07 03:58:08;;;;;;;5.10;0.70;;;;;;;3.32;78.85;96152.91;5076707;28;20044;-83
2022/02/07 04:00:39;;;;;;;2.60;0.70;;;;;;;3.30;79.27;96161.59;5075137;28;20059;-83
2022/02/07 04:03:10;;;;;;;6.13;0.95;;;;;;;3.30;79.05;96171.06;5074749;28;20048;-82
2022/02/07 04:05:46;;;;;;;3.42;0.70;;;;;;;3.30;78.75;96171.06;5074489;28;20053;-83
2022/02/07 04:08:16;;;;;;;1.42;0.88;;;;;;;3.28;78.81;96181.56;5074964;28;20060;-83
2022/02/07 04:10:55;;;;;;;2.00;0.63;;;;;;;3.26;78.19;96195.56;5075075;28;20079;-83
2022/02/07 04:13:31;;;;;;;4.93;0.88;;;;;;;3.25;78.91;96194.72;5074048;28;20058;-83
2022/02/07 04:16:03;;;;;;;3.88;1.08;;;;;;;3.25;78.59;96210.19;5079207;28;20055;-83
2022/02/07 04:18:36;;;;;;;2.33;1.02;;;;;;;3.26;79.09;96218.75;5075946;28;20048;-83
2022/02/07 04:21:04;;;;;;;2.13;0.50;;;;;;;3.26;79.04;96229.06;5074829;28;20139;-83
2022/02/07 04:23:32;;;;;;;2.38;0.90;;;;;;;3.26;78.85;96245.34;5074105;28;20048;-82
2022/02/07 04:26:00;;;;;;;3.33;0.60;;;;;;;3.23;78.59;96252.53;5074420;28;20051;-83
2022/02/07 04:28:28;;;;;;;2.80;0.50;;;;;;;3.24;78.51;96265.28;5073974;28;20052;-82
2022/02/07 04:30:56;;;;;;;8.30;1.67;;;;;;;3.23;78.72;96273.16;5074392;28;20071;-83
2022/02/07 04:33:25;;;;;;;1.60;0.50;;;;;;;3.20;78.27;96289.72;5074477;28;20056;-83
2022/02/07 04:35:54;;;;;;;3.40;0.50;;;;;;;3.18;78.26;96306.28;5075409;28;20101;-83
2022/02/07 04:38:22;;;;;;;3.20;0.50;;;;;;;3.13;78.48;96300.72;5074522;28;20067;-83
2022/02/07 04:40:50;;;;;;;2.50;0.68;;;;;;;3.11;78.79;96311.22;5074053;28;20490;-82
2022/02/07 04:43:19;;;;;;;6.18;0.80;;;;;;;3.09;79.33;96326.81;5074351;28;20053;-83
2022/02/07 04:45:57;;;;;;;2.15;0.95;;;;;;;3.08;79.47;96339.81;5075517;28;20071;-85
2022/02/07 04:48:59;;;;;;;7.65;1.30;;;;;;;3.08;79.66;96339.81;5075046;28;20057;-83
2022/02/07 04:54:31;;;;;;;1.67;0.63;;;;;;;3.09;80.34;96364.66;5070634;28;20486;-83
2022/02/07 04:57:09;;;;;;;1.10;0.73;;;;;;;3.11;80.26;96382.56;5076225;28;20048;-83
2022/02/07 04:59:47;;;;;;;2.65;0.82;;;;;;;3.13;80.64;96383.22;5074313;28;20135;-83
2022/02/07 05:02:22;;;;;;;2.75;0.57;;;;;;;3.16;80.93;96395.81;5073135;28;20051;-84
2022/02/07 05:04:58;;;;;;;2.60;0.65;;;;;;;3.17;80.28;96403.44;5074078;28;20071;-83
2022/02/07 05:15:46;;;;;;;2.25;0.70;;;;;;;3.06;79.33;96443.06;5073807;28;20052;-84
2022/02/07 05:18:15;;;;;;;2.50;0.50;;;;;;;3.03;79.14;96445.91;5075803;28;20406;-82
2022/02/07 05:20:44;;;;;;;1.88;0.73;;;;;;;3.01;79.10;96454.72;5077432;28;20063;-83
2022/02/07 05:23:11;;;;;;;0.85;0.50;;;;;;;2.95;78.82;96465.56;5077665;28;20048;-83
2022/02/07 05:25:40;;;;;;;2.42;0.70;;;;;;;2.93;78.86;96467.47;5077528;28;20052;-82
2022/02/07 05:28:07;;;;;;;5.22;0.80;;;;;;;2.89;78.81;96478.06;5078854;28;20053;-83
2022/02/07 05:30:35;;;;;;;1.83;0.70;;;;;;;2.88;79.03;96486.72;5085426;28;20239;-82
2022/02/07 05:33:03;;;;;;;1.90;0.65;;;;;;;2.85;78.51;96501.66;5082832;28;20052;-83
2022/02/07 05:35:31;;;;;;;3.33;0.73;;;;;;;2.81;78.73;96505.47;5079584;28;20049;-83
2022/02/07 05:38:02;;;;;;;4.15;0.80;;;;;;;2.79;78.85;96512.50;5087590;28;20052;-84
2022/02/07 05:40:37;;;;;;;2.22;1.20;;;;;;;2.81;79.31;96526.06;5097917;28;20052;-83
2022/02/07 05:43:07;;;;;;;4.60;0.60;;;;;;;2.81;78.63;96542.31;5098452;28;20055;-83
2022/02/07 05:45:35;;;;;;;3.92;1.35;;;;;;;2.82;78.58;96548.28;5097638;28;20072;-83
2022/02/07 05:48:03;;;;;;;2.65;1.20;;;;;;;2.82;78.51;96558.59;5096715;28;20044;-83
2022/02/07 05:50:32;;;;;;;3.00;0.80;;;;;;;2.79;78.09;96564.84;5093901;28;20504;-83
2022/02/07 05:53:01;;;;;;;6.07;1.45;;;;;;;2.76;77.80;96562.53;5085537;28;20139;-82
2022/02/07 05:55:32;;;;;;;4.78;1.05;;;;;;;2.75;77.94;96571.19;5079856;28;20044;-83
2022/02/07 05:58:00;;;;;;;3.95;0.98;;;;;;;2.73;76.79;96573.09;5078663;28;20053;-82
2022/02/07 06:00:32;;;;;;;33.10;16.05;;;;;;;2.73;77.66;96580.00;5079130;28;20048;-83
2022/02/07 06:03:01;;;;;;;5.80;1.88;;;;;;;2.72;78.20;96584.34;5079118;28;20405;-82
2022/02/07 06:05:29;;;;;;;2.40;0.88;;;;;;;2.73;77.71;96580.00;5078642;28;20053;-82
2022/02/07 06:07:57;;;;;;;4.22;1.42;;;;;;;2.72;77.41;96584.34;5091824;28;20032;-85
2022/02/07 06:10:27;;;;;;;4.75;1.75;;;;;;;2.74;77.92;96597.09;5098435;28;20044;-82
2022/02/07 06:12:55;;;;;;;6.68;1.13;;;;;;;2.79;77.92;96598.31;5098218;28;20040;-83
2022/02/07 06:15:22;;;;;;;7.90;1.83;;;;;;;2.79;78.07;96613.78;5098046;28;20036;-86
2022/02/07 06:17:54;;;;;;;2.90;1.15;;;;;;;2.81;78.06;96624.75;5087663;28;20052;-83
2022/02/07 06:20:24;;;;;;;5.13;0.98;;;;;;;2.82;77.94;96630.72;5080482;28;20049;-82
2022/02/07 06:22:52;;;;;;;4.28;0.80;;;;;;;2.79;76.77;96629.22;5079087;28;20044;-82
2022/02/07 06:25:20;;;;;;;10.18;1.60;;;;;;;2.79;77.39;96652.41;5079066;28;20063;-83
2022/02/07 06:27:50;;;;;;;4.65;1.23;;;;;;;2.83;78.46;96655.56;5084364;28;20036;-84
2022/02/07 06:30:19;;;;;;;3.80;0.98;;;;;;;2.86;78.11;96666.41;5097687;28;20033;-83
2022/02/07 06:32:46;;;;;;;5.15;1.30;;;;;;;2.89;78.01;96676.44;5094464;28;20039;-77
2022/02/07 06:35:15;;;;;;;3.63;1.50;;;;;;;2.89;78.31;96676.44;5085310;28;20242;-76
2022/02/07 06:37:43;;;;;;;3.28;1.70;;;;;;;2.91;78.13;96686.63;5075317;28;20446;-76
2022/02/07 06:40:11;;;;;;;3.72;0.95;;;;;;;2.87;77.26;96686.06;5075530;28;20048;-77
2022/02/07 06:42:38;;;;;;;5.72;1.38;;;;;;;2.84;77.10;96686.34;5075807;28;20049;-78
2022/02/07 06:45:08;;;;;;;6.28;1.25;;;;;;;2.86;76.51;96699.91;5075177;28;20048;-76
2022/02/07 06:47:35;;;;;;;3.22;1.70;;;;;;;2.87;77.64;96722.16;5075620;28;20049;-77
2022/02/07 06:50:04;;;;;;;5.38;1.60;;;;;;;2.87;77.75;96726.50;5075415;28;20469;-78
2022/02/07 06:52:31;;;;;;;5.13;2.13;;;;;;;2.82;77.46;96719.16;5075683;28;20044;-78
2022/02/07 06:54:58;;;;;;;7.28;1.45;;;;;;;2.79;76.41;96724.53;5076220;28;20056;-76
2022/02/07 06:57:27;;;;;;;2.35;1.20;;;;;;;2.78;77.55;96732.44;5066331;28;20044;-77
2022/02/07 06:59:54;;;;;;;4.43;1.65;;;;;;;2.77;77.77;96721.28;5056319;28;20057;-78
2022/02/07 07:02:26;;;;;;;5.50;1.27;;;;;;;2.77;77.42;96734.16;5056936;28;20045;-77
2022/02/07 07:04:56;;;;;;;2.47;1.75;;;;;;;2.78;77.05;96743.53;5076153;28;20441;-77
2022/02/07 07:07:23;;;;;;;3.45;1.23;;;;;;;2.74;76.48;96755.03;5075917;28;20621;-77
2022/02/07 07:09:53;;;;;;;3.10;1.10;;;;;;;2.74;76.10;96751.66;5075487;28;20052;-77
2022/02/07 07:12:20;;;;;;;5.97;1.70;;;;;;;2.74;77.22;96756.81;5075419;28;20056;-77
2022/02/07 07:14:51;;;;;;;2.28;1.00;;;;;;;2.76;76.98;96760.88;5075285;28;20053;-76
2022/02/07 07:17:19;;;;;;;3.25;1.17;;;;;;;2.74;75.92;96767.91;5074479;28;20434;-76
2022/02/07 07:19:48;;;;;;;6.57;1.80;;;;;;;2.73;77.04;96779.16;5074439;28;20048;-77
2022/02/07 07:22:15;;;;;;;7.93;2.22;;;;;;;2.71;76.57;96780.22;5074047;28;20060;-77
2022/02/07 07:24:45;;;;;;;4.93;1.30;;;;;;;2.70;77.10;96776.84;5074494;28;20625;-77
2022/02/07 07:27:13;;;;;;;6.22;1.65;;;;;;;2.72;77.08;96779.31;5073822;28;20049;-76
2022/02/07 07:29:45;;;;;;;6.03;1.30;;;;;;;2.72;75.71;96795.56;5073924;28;20048;-78
2022/02/07 07:32:18;;;;;;;6.68;1.75;;;;;;;2.72;75.86;96800.72;5073710;28;20049;-76
2022/02/07 07:34:45;;;;;;;5.25;1.25;;;;;;;2.75;77.12;96800.44;5074014;28;20059;-76
2022/02/07 07:37:14;;;;;;;5.53;1.38;;;;;;;2.74;76.17;96801.41;5073566;28;20045;-77
2022/02/07 07:39:42;;;;;;;3.92;1.27;;;;;;;2.75;75.98;96817.66;5073835;28;20052;-77
2022/02/07 07:42:10;;;;;;;6.95;1.38;;;;;;;2.77;77.26;96818.38;5073437;28;20048;-76
2022/02/07 07:44:40;;;;;;;3.38;1.20;;;;;;;2.83;77.32;96823.81;5073723;28;20098;-77
2022/02/07 07:47:10;;;;;;;4.70;1.10;;;;;;;2.84;76.05;96835.78;5073982;28;20045;-78
2022/02/07 07:49:44;;;;;;;4.20;1.30;;;;;;;2.88;77.50;96844.03;5073912;28;20049;-77
2022/02/07 07:52:14;;;;;;;2.90;1.25;;;;;;;2.95;77.47;96839.19;5074752;28;20131;-77
2022/02/07 08:03:13;;;;;;;11.75;3.97;;;;;;;3.12;76.79;96864.38;5072827;28;20412;-77
2022/02/07 08:05:45;;;;;;;13.57;4.45;;;;;;;3.12;77.04;96861.78;5072970;28;20049;-77
2022/02/07 08:08:23;;;;;;;11.85;2.90;;;;;;;3.15;76.67;96871.03;5073242;28;20052;-77
2022/02/07 08:11:03;;;;;;;6.57;2.10;;;;;;;3.17;75.65;96882.03;5060686;28;20056;-78
2022/02/07 08:13:32;;;;;;;6.63;2.30;;;;;;;3.16;76.54;96881.22;5053902;28;20056;-78
2022/02/07 08:16:00;;;;;;;4.70;2.10;;;;;;;3.20;77.33;96885.19;5052883;28;20045;-78
2022/02/07 08:18:28;;;;;;;8.45;3.13;;;;;;;3.22;76.65;96896.19;5053627;28;20056;-77
2022/02/07 08:20:55;;;;;;;5.75;2.50;;;;;;;3.22;76.42;96896.19;5053129;28;20045;-77
2022/02/07 08:23:23;;;;;;;3.58;1.45;;;;;;;3.25;76.73;96898.50;5052849;28;20052;-77
2022/02/07 08:25:53;;;;;;;6.75;1.60;;;;;;;3.29;76.35;96904.22;5052528;28;20048;-77
2022/02/07 08:28:41;;;;;;;6.57;1.80;;;;;;;3.32;76.10;96905.72;5052688;28;20118;-78
2022/02/07 08:31:08;;;;;;;6.38;1.30;;;;;;;3.30;75.60;96911.84;5052410;28;20045;-78
2022/02/07 08:33:36;;;;;;;6.68;2.00;;;;;;;3.29;75.14;96917.91;5052581;28;20517;-77
2022/02/07 08:36:05;;;;;;;2.88;1.55;;;;;;;3.30;75.84;96924.72;5051942;28;20049;-77
2022/02/07 08:38:33;;;;;;;5.93;1.73;;;;;;;3.34;76.67;96933.00;5052574;28;20072;-78
2022/02/07 08:41:02;;;;;;;7.15;1.95;;;;;;;3.36;76.65;96944.00;5052060;28;20519;-76
2022/02/07 08:43:30;;;;;;;5.47;1.70;;;;;;;3.39;75.71;96948.09;5052378;28;20114;-76
2022/02/07 08:45:57;;;;;;;6.13;2.20;;;;;;;3.38;75.58;96967.09;5051844;28;20052;-77
2022/02/07 08:48:24;;;;;;;4.93;1.30;;;;;;;3.35;75.08;96967.34;5052349;28;20408;-77
2022/02/07 08:50:54;;;;;;;6.85;1.48;;;;;;;3.35;76.32;96963.00;5086809;22;20048;-81
2022/02/07 08:53:24;;;;;;;5.65;1.60;;;;;;;3.39;76.69;96973.88;5068457;28;20052;-78
2022/02/07 08:55:52;;;;;;;7.53;1.45;;;;;;;3.40;76.10;96970.38;5061560;28;20136;-79
2022/02/07 08:58:24;;;;;;;4.25;1.75;;;;;;;3.42;75.95;96982.19;5069642;28;20446;-77
2022/02/07 09:01:02;;;;;;;4.97;1.80;;;;;;;3.44;76.33;96976.91;5073392;28;20060;-80
2022/02/07 09:04:06;;;;;;;5.90;1.77;;;;;;;3.44;75.75;96980.28;5074216;28;20123;-78
2022/02/07 09:06:38;;;;;;;8.15;2.13;;;;;;;3.50;75.89;96991.88;5074060;28;20070;-81
2022/02/07 09:09:16;;;;;;;10.32;2.45;;;;;;;3.50;75.37;96991.88;5074212;28;20056;-79
2022/02/07 09:11:43;;;;;;;8.50;1.63;;;;;;;3.47;75.40;96997.28;5073867;28;20048;-78
2022/02/07 09:14:20;;;;;;;8.20;1.60;;;;;;;3.46;76.04;97006.78;5074071;28;20510;-77
2022/02/07 09:16:47;;;;;;;8.07;1.90;;;;;;;3.48;76.41;97014.41;5073518;28;20048;-78
2022/02/07 09:19:19;;;;;;;8.65;1.50;;;;;;;3.50;75.53;97010.75;5067835;28;20056;-80
2022/02/07 09:21:54;;;;;;;5.00;1.27;;;;;;;3.50;74.82;97015.09;5068353;28;20057;-79
2022/02/07 09:24:21;;;;;;;4.28;1.48;;;;;;;3.49;74.48;97028.91;5055838;28;20049;-80
2022/02/07 09:26:48;;;;;;;6.05;1.60;;;;;;;3.44;74.15;97023.31;5058125;28;20041;-81
2022/02/07 09:29:17;;;;;;;5.05;1.42;;;;;;;3.42;73.61;97027.78;5073803;28;20067;-79
2022/02/07 09:31:45;;;;;;;6.65;2.13;;;;;;;3.38;73.74;97040.09;5072380;28;20055;-79
2022/02/07 09:34:12;;;;;;;5.50;1.58;;;;;;;3.37;74.32;97041.06;5073043;28;20055;-80
2022/02/07 09:36:40;;;;;;;5.97;1.67;;;;;;;3.38;75.10;97036.72;5057825;28;20049;-78
2022/02/07 09:39:07;;;;;;;3.88;1.20;;;;;;;3.40;75.49;97047.72;5052988;28;20048;-78
2022/02/07 09:41:35;;;;;;;4.78;1.38;;;;;;;3.43;75.63;97052.63;5072880;28;20563;-80
2022/02/07 09:44:07;;;;;;;8.27;1.73;;;;;;;3.45;75.93;97066.22;5073141;28;20498;-79
2022/02/07 09:46:46;;;;;;;6.03;2.15;;;;;;;3.46;76.05;97073.03;5074423;28;20075;-78
2022/02/07 09:49:17;;;;;;;5.88;1.40;;;;;;;3.48;75.34;97071.13;5073722;28;20053;-80
2022/02/07 09:51:47;;;;;;;2.97;1.23;;;;;;;3.49;76.06;97088.22;5074036;28;20048;-79
2022/02/07 09:54:17;;;;;;;6.82;1.65;;;;;;;3.51;76.09;97088.94;5073442;28;20056;-78
2022/02/07 09:56:45;;;;;;;6.32;1.95;;;;;;;3.51;75.52;97088.94;5073077;28;20048;-78
2022/02/07 09:59:14;;;;;;;9.98;2.08;;;;;;;3.48;75.62;97105.47;5073820;28;20488;-79
2022/02/07 10:01:46;;;;;;;4.20;1.50;;;;;;;3.48;75.83;97120.13;5072833;28;20051;-78
2022/02/07 10:04:24;;;;;;;6.18;1.58;;;;;;;3.48;73.82;97120.13;5073187;28;20052;-79
2022/02/07 10:07:03;;;;;;;6.82;2.78;;;;;;;3.49;75.44;97124.34;5076166;28;20075;-79
2022/02/07 10:09:44;;;;;;;6.60;2.55;;;;;;;3.52;74.74;97124.09;5076341;28;20499;-78
2022/02/07 10:12:31;;;;;;;8.73;1.45;;;;;;;3.53;75.36;97130.88;5076112;28;20055;-78
2022/02/07 10:15:17;;;;;;;3.40;1.70;;;;;;;3.54;75.25;97135.09;5075921;28;20048;-77
2022/02/07 10:17:57;;;;;;;5.47;2.13;;;;;;;3.55;74.94;97138.50;5075454;28;20514;-78
2022/02/07 10:34:54;;;;;;;6.38;1.67;;;;;;;3.58;74.15;97169.22;5076122;28;20056;-84
2022/02/07 10:37:53;;;;;;;5.43;2.10;;;;;;;3.57;74.18;97173.56;5075676;28;20045;-78
2022/02/07 10:40:29;;;;;;;4.50;1.90;;;;;;;3.58;74.27;97170.03;5076448;28;20048;-79
2022/02/07 10:43:22;;;;;;;7.00;1.88;;;;;;;3.59;73.85;97176.03;5076608;28;20052;-80
2022/02/07 10:45:58;;;;;;;7.32;1.40;;;;;;;3.57;72.91;97168.41;5076153;28;20045;-79
2022/02/07 10:48:35;;;;;;;5.28;1.55;;;;;;;3.59;73.72;97178.59;5075238;28;20045;-79
2022/02/07 10:51:17;;;;;;;4.40;1.98;;;;;;;3.62;74.82;97179.16;5075471;28;20135;-79
2022/02/07 10:53:47;;;;;;;5.97;1.92;;;;;;;3.64;73.52;97190.16;5075749;28;20101;-79
2022/02/07 10:56:16;;;;;;;6.03;1.42;;;;;;;3.65;73.28;97191.81;5074748;28;20066;-78
2022/02/07 10:58:45;;;;;;;8.05;1.58;;;;;;;3.65;73.05;97196.13;5075672;28;20102;-78
2022/02/07 11:01:19;;;;;;;8.05;1.58;;;;;;;3.66;73.21;97193.44;5092176;28;20044;-78
2022/02/07 11:03:51;;;;;;;4.93;1.47;;;;;;;3.67;73.70;97197.69;5081203;28;20049;-77
2022/02/07 11:06:25;;;;;;;4.63;1.48;;;;;;;3.71;72.86;97208.56;5069107;28;20068;-79
2022/02/07 11:09:09;;;;;;;3.25;1.40;;;;;;;3.72;72.96;97213.59;5058394;28;20048;-81
2022/02/07 11:14:40;;;;;;;5.80;2.13;;;;;;;3.75;73.53;97225.44;5065558;28;20085;-79
2022/02/07 11:17:23;;;;;;;6.10;2.10;;;;;;;3.75;73.02;97232.34;5075390;28;20648;-78
2022/02/07 11:20:00;;;;;;;5.93;1.80;;;;;;;3.75;73.06;97240.91;5072777;28;20134;-81
2022/02/07 11:22:40;;;;;;;11.27;2.30;;;;;;;3.78;74.98;97240.66;5056455;28;20045;-78
2022/02/07 11:25:29;;;;;;;7.40;2.40;;;;;;;3.77;74.93;97257.09;5056494;28;20087;-78
2022/02/07 11:27:58;;;;;;;4.65;1.80;;;;;;;3.76;73.74;97259.78;5054525;28;20498;-81
2022/02/07 11:30:47;;;;;;;10.50;1.95;;;;;;;3.72;72.00;97267.78;5054938;28;20114;-79
2022/02/07 11:33:40;;;;;;;7.18;2.10;;;;;;;3.71;71.83;97283.38;5055477;28;20446;-78
2022/02/07 11:36:13;;;;;;;13.75;3.63;;;;;;;3.72;73.24;97291.00;5055407;28;20055;-80
2022/02/07 11:38:58;;;;;;;;;;;;;;;3.76;73.60;97283.84;5073514;28;20059;-78
2022/02/07 11:41:25;;;;;;;6.10;1.92;;;;;;;3.78;73.00;97296.63;5077398;28;20271;-79
2022/02/07 11:43:54;;;;;;;10.15;2.25;;;;;;;3.76;72.35;97301.06;5076607;28;20060;-80
2022/02/07 11:46:23;;;;;;;12.43;3.15;;;;;;;3.79;74.36;97316.34;5076417;28;20048;-80
2022/02/07 11:48:52;;;;;;;6.10;1.92;;;;;;;3.78;72.82;97322.41;5076304;28;20049;-80
2022/02/07 11:51:25;;;;;;;6.45;1.83;;;;;;;3.78;73.99;97330.97;5076024;28;20049;-80
2022/02/07 11:53:53;;;;;;;;;;;;;;;3.82;73.11;97328.97;5057585;28;20056;-79
2022/02/07 11:56:35;;;;;;;4.65;2.10;;;;;;;3.84;73.76;97345.16;5056453;28;19928;-77
2022/02/07 11:59:14;;;;;;;5.00;1.92;;;;;;;3.84;73.21;97350.31;5056221;28;20052;-80
2022/02/07 12:01:59;;;;;;;3.70;1.88;;;;;;;3.85;74.51;97350.22;5055938;28;20477;-80
2022/02/07 12:04:36;;;;;;;5.45;1.50;;;;;;;3.89;73.54;97361.09;5055200;28;20057;-78
2022/02/07 12:07:30;;;;;;;8.13;1.83;;;;;;;3.95;73.99;97357.22;5055461;28;20057;-79
2022/02/07 12:10:25;;;;;;;6.47;1.55;;;;;;;3.97;73.94;97366.47;5054243;28;20049;-80
2022/02/07 12:12:57;;;;;;;5.47;1.20;;;;;;;3.99;74.20;97368.94;5057012;28;20490;-79
2022/02/07 12:15:32;;;;;;;5.15;1.67;;;;;;;4.02;74.33;97368.69;5059984;28;20106;-80
2022/02/07 12:18:01;;;;;;;7.03;1.58;;;;;;;4.05;73.91;97371.88;5054755;28;20052;-78
2022/02/07 12:20:34;;;;;;;6.97;1.52;;;;;;;4.04;72.79;97371.97;5054250;28;20048;-78
2022/02/07 12:23:07;;;;;;;6.27;1.93;;;;;;;4.04;73.73;97388.28;5054974;28;20053;-79
2022/02/07 12:25:45;;;;;;;9.55;1.90;;;;;;;4.07;74.39;97390.63;5055283;28;20274;-78
2022/02/07 12:28:19;;;;;;;6.43;1.73;;;;;;;4.07;73.53;97398.38;5054882;28;20052;-80
2022/02/07 12:31:00;;;;;;;4.35;1.70;;;;;;;4.06;72.82;97399.31;5055664;28;20048;-80
2022/02/07 12:33:29;;;;;;;3.97;1.70;;;;;;;4.06;73.49;97406.25;5056156;28;20045;-79
2022/02/07 12:36:01;;;;;;;5.55;2.00;;;;;;;4.05;71.93;97414.94;5055476;28;20053;-80
2022/02/07 12:38:33;;;;;;;6.15;1.50;;;;;;;4.02;72.40;97408.22;5054881;28;20491;-78
2022/02/07 12:41:03;;;;;;;7.53;1.90;;;;;;;3.98;72.98;97430.09;5055096;28;20057;-78
2022/02/07 12:43:34;;;;;;;7.18;2.25;;;;;;;3.97;74.21;97432.78;5055150;28;20534;-78
2022/02/07 12:46:03;;;;;;;6.20;1.88;;;;;;;3.98;73.35;97437.84;5053911;28;20095;-78
2022/02/07 12:48:33;;;;;;;7.28;1.88;;;;;;;3.98;73.17;97439.56;5054222;28;20048;-77
2022/02/07 12:51:02;;;;;;;11.65;1.88;;;;;;;4.00;73.13;97446.28;5054521;28;20387;-78
2022/02/07 12:53:31;;;;;;;5.53;2.35;;;;;;;4.03;72.81;97443.44;5054115;28;20060;-77
2022/02/07 12:56:01;;;;;;;11.02;2.15;;;;;;;4.04;73.62;97439.91;5054420;28;20059;-79
2022/02/07 12:58:37;;;;;;;8.98;2.03;;;;;;;4.01;71.24;97432.41;5054481;28;20060;-78
2022/02/07 13:01:23;;;;;;;8.95;1.92;;;;;;;4.01;71.38;97429.03;5054971;28;20056;-78
2022/02/07 13:03:52;;;;;;;4.82;1.67;;;;;;;4.02;71.23;97431.47;5055338;28;20064;-81
2022/02/07 13:06:25;;;;;;;6.13;1.60;;;;;;;4.04;72.43;97437.34;5055211;28;20056;-79
2022/02/07 13:09:16;;;;;;;8.45;2.85;;;;;;;4.08;72.95;97436.16;5053737;28;20053;-81
2022/02/07 13:11:48;;;;;;;6.35;1.90;;;;;;;4.09;72.16;97424.91;5054809;28;20053;-78
2022/02/07 13:14:18;;;;;;;7.15;1.95;;;;;;;4.12;73.48;97426.41;5055976;28;20048;-79
2022/02/07 13:16:46;;;;;;;6.60;1.98;;;;;;;4.15;73.26;97425.34;5065430;28;20044;-77
2022/02/07 13:19:19;;;;;;;5.57;2.15;;;;;;;4.18;73.93;97427.72;5074140;28;20040;-79
2022/02/07 13:21:49;;;;;;;9.98;2.70;;;;;;;4.23;73.71;97423.81;5086797;28;20459;-79
2022/02/07 13:24:20;;;;;;;8.00;1.88;;;;;;;4.30;72.75;97427.53;5094668;28;20047;-78
2022/02/07 13:26:49;;;;;;;5.53;2.33;;;;;;;4.33;71.97;97434.25;5095142;28;20047;-80
2022/02/07 13:29:21;;;;;;;5.78;1.70;;;;;;;4.35;71.08;97445.25;5094825;28;20052;-78
2022/02/07 13:31:57;;;;;;;8.95;2.60;;;;;;;4.38;71.92;97436.47;5096030;28;20055;-81